Time;durP1;ratioP1;P1;durP2;ratioP2;P2;SDS_P1;SDS_P2;PMS_P1;PMS_P2;Temp;Humidity;BMP_temperature;BMP_pressure;BME280_temperature;BME280_humidity;BME280_pressure;Samples;Min_cycle;Max_cycle;Signal;HPM_P1;HPM_P2
2023/06/21 00:00:45;;;;;;;;;6.00;4.00;;;;;24.39;53.30;100614.13;5092550;27;45939;-81
2023/06/21 00:03:12;;;;;;;;;4.00;4.00;;;;;24.32;53.54;100613.25;5093189;27;45775;-83
2023/06/21 00:05:40;;;;;;;;;4.25;4.00;;;;;24.16;54.01;100602.84;5093445;27;45849;-83
2023/06/21 00:08:06;;;;;;;;;4.75;4.25;;;;;24.20;53.91;100612.16;5093318;27;45970;-81
2023/06/21 00:10:32;;;;;;;;;4.00;4.00;;;;;24.13;53.76;100600.56;5093120;27;45844;-83
2023/06/21 00:12:58;;;;;;;;;5.00;4.00;;;;;24.00;54.20;100581.72;5095222;27;46049;-82
2023/06/21 00:15:24;;;;;;;;;6.50;4.00;;;;;24.00;54.50;100598.63;5086705;27;45628;-82
2023/06/21 00:17:50;;;;;;;;;4.75;4.75;;;;;24.03;54.79;100611.59;5093882;27;46000;-80
2023/06/21 00:20:16;;;;;;;;;3.75;3.75;;;;;23.98;54.57;100608.69;5094763;27;45530;-83
2023/06/21 00:22:45;;;;;;;;;4.50;4.00;;;;;23.95;54.86;100622.47;5092413;27;45591;-76
2023/06/21 00:25:11;;;;;;;;;4.75;3.50;;;;;23.92;54.62;100617.50;5092806;27;47375;-79
2023/06/21 00:27:37;;;;;;;;;4.25;4.25;;;;;23.88;55.16;100618.09;5092913;27;48077;-78
2023/06/21 00:30:02;;;;;;;;;4.00;4.00;;;;;23.82;54.89;100617.03;5092244;27;45729;-79
2023/06/21 00:32:28;;;;;;;;;5.75;4.00;;;;;23.68;55.81;100612.59;5091074;27;45750;-83
2023/06/21 00:34:53;;;;;;;;;2.50;2.50;;;;;23.47;55.97;100600.09;5092839;27;45766;-80
2023/06/21 00:37:18;;;;;;;;;3.75;3.75;;;;;23.26;55.36;100584.88;5088772;27;47086;-84
2023/06/21 00:39:44;;;;;;;;;5.00;5.00;;;;;23.42;55.70;100623.88;5087411;27;45697;-86
2023/06/21 00:42:10;;;;;;;;;4.75;3.75;;;;;23.40;56.21;100626.75;5093084;27;45726;-84
2023/06/21 00:44:36;;;;;;;;;4.25;4.25;;;;;23.36;55.96;100612.09;5091977;27;46466;-84
2023/06/21 00:47:02;;;;;;;;;3.25;3.00;;;;;23.23;55.84;100601.28;5092320;27;46213;-76
2023/06/21 00:49:30;;;;;;;;;4.00;4.00;;;;;23.24;56.88;100610.13;5087654;27;46115;-82
2023/06/21 00:51:58;;;;;;;;;4.75;4.50;;;;;23.10;56.84;100598.47;5092080;27;45983;-82
2023/06/21 00:54:31;;;;;;;;;2.75;2.00;;;;;23.11;57.29;100629.53;5092080;27;46904;-83
2023/06/21 00:56:57;;;;;;;;;5.00;4.00;;;;;22.90;57.23;100602.78;5092798;27;47085;-76
2023/06/21 00:59:27;;;;;;;;;4.00;4.00;;;;;22.94;56.93;100626.25;5093202;27;45737;-76
2023/06/21 01:02:00;;;;;;;;;4.25;4.25;;;;;22.90;56.99;100633.00;5093332;27;45632;-77
2023/06/21 01:04:31;;;;;;;;;5.00;5.00;;;;;22.84;57.46;100625.72;5090145;27;46375;-78
2023/06/21 01:07:15;;;;;;;;;4.00;4.00;;;;;22.82;57.73;100624.28;5091361;27;47177;-77
2023/06/21 01:10:08;;;;;;;;;4.25;4.00;;;;;22.76;57.69;100636.53;5092152;27;45634;-79
2023/06/21 01:12:45;;;;;;;;;4.00;4.00;;;;;22.74;58.13;100640.41;5089615;27;45894;-83
2023/06/21 01:15:26;;;;;;;;;5.25;4.25;;;;;22.67;58.26;100639.47;5091879;27;47452;-79
2023/06/21 01:17:56;;;;;;;;;4.25;4.25;;;;;22.56;58.42;100630.09;5091914;27;46318;-82
2023/06/21 01:20:29;;;;;;;;;4.50;4.00;;;;;22.58;58.29;100638.75;5091784;27;46058;-83
2023/06/21 01:23:23;;;;;;;;;5.50;4.50;;;;;22.64;58.85;100661.19;5091672;27;45631;-79
2023/06/21 01:26:11;;;;;;;;;5.50;4.00;;;;;22.60;59.01;100664.25;5090812;27;46484;-80
2023/06/21 01:28:41;;;;;;;;;3.75;3.75;;;;;22.58;58.59;100665.44;5092524;27;46521;-78
2023/06/21 01:31:09;;;;;;;;;4.50;4.25;;;;;22.49;59.06;100646.03;5095125;27;46012;-78
2023/06/21 01:33:35;;;;;;;;;4.00;4.00;;;;;22.58;58.63;100652.94;5098159;27;46080;-79
2023/06/21 01:36:03;;;;;;;;;5.00;4.25;;;;;22.59;58.80;100665.28;5099035;27;46973;-80
2023/06/21 01:38:29;;;;;;;;;4.00;3.25;;;;;22.55;59.04;100655.16;5095812;27;46122;-83
2023/06/21 01:40:54;;;;;;;;;4.00;4.00;;;;;22.62;58.64;100668.59;5083956;27;45656;-84
2023/06/21 01:43:21;;;;;;;;;5.00;5.00;;;;;22.62;59.27;100666.72;5089529;27;45566;-82
2023/06/21 01:45:48;;;;;;;;;4.25;4.25;;;;;22.54;58.63;100654.31;5092409;27;46022;-80
2023/06/21 01:48:14;;;;;;;;;4.25;4.25;;;;;22.68;59.23;100675.84;5091542;27;46013;-82
2023/06/21 01:50:40;;;;;;;;;4.25;4.25;;;;;22.65;58.67;100674.38;5083953;27;45866;-78
2023/06/21 01:53:06;;;;;;;;;2.75;2.75;;;;;22.67;58.56;100685.72;5081425;27;45698;-78
2023/06/21 01:55:32;;;;;;;;;3.50;3.50;;;;;22.68;59.25;100689.19;5095409;27;46641;-78
2023/06/21 01:57:59;;;;;;;;;3.75;3.00;;;;;22.56;58.69;100680.84;5086130;27;45633;-83
2023/06/21 02:00:26;;;;;;;;;4.50;4.00;;;;;22.57;58.96;100691.31;5093257;27;45724;-83
2023/06/21 02:03:00;;;;;;;;;5.00;4.50;;;;;22.56;59.53;100696.88;5093794;27;45790;-83
2023/06/21 02:05:27;;;;;;;;;5.75;4.00;;;;;22.58;59.16;100692.97;5093663;27;45712;-82
2023/06/21 02:07:54;;;;;;;;;4.00;4.00;;;;;22.53;59.13;100694.56;5094648;27;45781;-77
2023/06/21 02:10:20;;;;;;;;;1.00;1.00;;;;;22.58;59.32;100708.19;5086494;27;45691;-78
2023/06/21 02:12:52;;;;;;;;;5.25;4.00;;;;;22.59;59.22;100705.34;5091311;27;45865;-80
2023/06/21 02:15:18;;;;;;;;;4.25;3.25;;;;;22.58;59.38;100709.00;5090059;27;46522;-82
2023/06/21 02:17:50;;;;;;;;;4.00;3.00;;;;;22.58;58.91;100701.00;5090658;27;46092;-78
2023/06/21 02:20:21;;;;;;;;;3.75;3.75;;;;;22.60;58.85;100700.81;5090946;27;45772;-75
2023/06/21 02:22:47;;;;;;;;;4.50;3.00;;;;;22.63;59.32;100697.78;5091405;27;45815;-76
2023/06/21 02:25:14;;;;;;;;;4.00;3.25;;;;;22.59;59.22;100691.97;5090807;27;45773;-75
2023/06/21 02:27:40;;;;;;;;;3.00;3.00;;;;;22.54;59.59;100686.38;5091360;27;45897;-75
2023/06/21 02:30:07;;;;;;;;;5.00;4.25;;;;;22.54;59.00;100689.03;5090598;27;45940;-76
2023/06/21 02:32:33;;;;;;;;;4.25;4.00;;;;;22.55;59.90;100684.53;5086297;27;45722;-77
2023/06/21 02:34:59;;;;;;;;;5.00;4.00;;;;;22.53;59.48;100683.88;5090371;27;45937;-78
2023/06/21 02:37:27;;;;;;;;;4.00;3.50;;;;;22.52;59.32;100687.53;5089900;27;46063;-82
2023/06/21 02:39:53;;;;;;;;;3.50;3.00;;;;;22.43;59.86;100677.97;5089227;27;45772;-76
2023/06/21 02:42:19;;;;;;;;;3.75;3.25;;;;;22.49;59.73;100688.75;5091143;27;45840;-75
2023/06/21 02:44:44;;;;;;;;;4.25;3.75;;;;;22.48;59.75;100687.09;5090533;27;46581;-75
2023/06/21 02:47:10;;;;;;;;;4.50;4.50;;;;;22.41;60.32;100690.69;5090463;27;45718;-76
2023/06/21 02:49:36;;;;;;;;;4.50;4.50;;;;;22.39;60.36;100692.72;5084935;27;45628;-76
2023/06/21 02:52:05;;;;;;;;;5.00;4.75;;;;;22.36;60.36;100701.91;5082937;27;45731;-76
2023/06/21 02:54:30;;;;;;;;;5.00;5.00;;;;;22.34;60.35;100705.78;5084648;27;47311;-77
2023/06/21 02:56:56;;;;;;;;;4.00;4.00;;;;;22.30;60.39;100697.28;5090999;27;46383;-80
2023/06/21 02:59:22;;;;;;;;;4.75;3.75;;;;;22.28;59.94;100699.34;5089308;27;45858;-80
2023/06/21 03:01:47;;;;;;;;;5.25;4.00;;;;;22.28;60.17;100703.84;5090417;27;46055;-79
2023/06/21 03:04:16;;;;;;;;;3.75;3.75;;;;;22.22;60.96;100693.91;5089785;27;46261;-77
2023/06/21 03:06:41;;;;;;;;;4.25;4.00;;;;;22.17;60.85;100703.28;5082946;27;46058;-78
2023/06/21 03:09:06;;;;;;;;;4.25;4.00;;;;;22.13;60.59;100709.97;5091192;27;45458;-78
2023/06/21 03:11:32;;;;;;;;;3.75;3.75;;;;;22.11;60.47;100712.00;5090917;27;45873;-79
2023/06/21 03:13:57;;;;;;;;;5.25;4.00;;;;;22.02;60.91;100690.94;5090268;27;46419;-78
2023/06/21 03:16:23;;;;;;;;;3.50;3.00;;;;;22.03;60.77;100700.56;5090670;27;46033;-79
2023/06/21 03:18:48;;;;;;;;;5.00;4.00;;;;;22.01;60.82;100698.09;5091034;27;45853;-78
2023/06/21 03:21:13;;;;;;;;;3.00;2.75;;;;;22.03;61.36;100709.41;5090013;27;45697;-78
2023/06/21 03:23:39;;;;;;;;;4.25;3.50;;;;;21.97;61.23;100704.00;5088640;27;45659;-79
2023/06/21 03:26:04;;;;;;;;;3.00;3.00;;;;;21.98;61.06;100714.47;5089946;27;45589;-79
2023/06/21 03:28:30;;;;;;;;;4.00;4.00;;;;;21.97;61.83;100714.66;5090314;27;45838;-79
2023/06/21 03:30:57;;;;;;;;;6.25;4.25;;;;;21.92;61.20;100715.13;5092467;27;45978;-79
2023/06/21 03:33:22;;;;;;;;;4.75;3.75;;;;;21.73;61.22;100692.47;5093423;27;46667;-80
2023/06/21 03:35:48;;;;;;;;;5.00;3.50;;;;;21.77;61.63;100704.44;5093953;27;45787;-77
2023/06/21 03:38:13;;;;;;;;;3.75;3.75;;;;;21.81;61.86;100718.22;5093253;27;45801;-77
2023/06/21 03:40:38;;;;;;;;;5.25;5.25;;;;;21.83;62.14;100718.91;5087457;27;46104;-77
2023/06/21 03:43:04;;;;;;;;;4.50;4.50;;;;;21.82;62.04;100729.72;5093399;27;46470;-76
2023/06/21 03:45:29;;;;;;;;;4.25;4.25;;;;;21.81;61.83;100736.91;5093261;27;45855;-78
2023/06/21 03:47:55;;;;;;;;;5.00;4.50;;;;;21.82;61.89;100743.91;5093462;27;45868;-77
2023/06/21 03:50:20;;;;;;;;;3.50;3.50;;;;;21.74;62.03;100746.66;5081467;27;45796;-77
2023/06/21 03:52:45;;;;;;;;;5.00;4.00;;;;;21.80;61.95;100756.59;5080011;27;45968;-76
2023/06/21 03:55:11;;;;;;;;;5.50;5.50;;;;;21.82;62.26;100759.06;5093240;27;45964;-77
2023/06/21 03:57:38;;;;;;;;;2.50;2.50;;;;;21.79;62.02;100762.94;5091106;27;46157;-76
2023/06/21 04:00:06;;;;;;;;;3.75;3.75;;;;;21.69;61.94;100760.53;5093111;27;45854;-76
2023/06/21 04:02:32;;;;;;;;;4.50;4.50;;;;;21.73;62.54;100766.31;5092680;27;46590;-76
2023/06/21 04:04:58;;;;;;;;;6.00;5.75;;;;;21.56;62.13;100741.59;5093252;27;46064;-76
2023/06/21 04:07:23;;;;;;;;;4.50;3.50;;;;;21.73;62.58;100764.50;5094260;27;45800;-77
2023/06/21 04:09:49;;;;;;;;;4.25;4.00;;;;;21.75;62.69;100770.47;5086787;27;45706;-77
2023/06/21 04:12:14;;;;;;;;;4.00;4.00;;;;;21.70;62.75;100778.16;5093150;27;46479;-78
2023/06/21 04:14:39;;;;;;;;;4.25;4.25;;;;;21.64;62.37;100772.72;5093074;27;45709;-78
2023/06/21 04:17:05;;;;;;;;;4.00;4.00;;;;;21.60;62.57;100772.22;5092819;27;45670;-74
2023/06/21 04:19:31;;;;;;;;;6.50;6.50;;;;;21.73;62.73;100796.50;5093280;27;45806;-79
2023/06/21 04:21:56;;;;;;;;;4.50;3.75;;;;;21.72;62.89;100794.00;5092501;27;46606;-78
2023/06/21 04:24:22;;;;;;;;;5.75;5.00;;;;;21.65;62.80;100785.88;5092947;27;46693;-78
2023/06/21 04:26:48;;;;;;;;;3.50;3.25;;;;;21.61;63.24;100784.56;5093496;27;45912;-77
2023/06/21 04:29:16;;;;;;;;;6.50;5.75;;;;;21.69;62.87;100803.19;5093655;27;45937;-76
2023/06/21 04:31:42;;;;;;;;;4.50;4.50;;;;;21.65;63.36;100806.38;5092047;27;45823;-76
2023/06/21 04:34:08;;;;;;;;;5.00;4.50;;;;;21.70;63.13;100810.16;5093074;27;45939;-77
2023/06/21 04:36:34;;;;;;;;;5.00;4.50;;;;;21.64;63.20;100799.41;5091791;27;45906;-77
2023/06/21 04:39:00;;;;;;;;;4.75;4.75;;;;;21.71;62.79;100813.66;5093101;27;45773;-76
2023/06/21 04:41:25;;;;;;;;;5.25;4.50;;;;;21.55;63.14;100795.94;5092266;27;46086;-75
2023/06/21 04:43:51;;;;;;;;;4.00;4.00;;;;;21.76;63.14;100836.13;5093191;27;47202;-77
2023/06/21 04:46:18;;;;;;;;;5.00;4.25;;;;;21.72;63.40;100840.16;5092672;27;45988;-78
2023/06/21 04:48:46;;;;;;;;;3.75;3.50;;;;;21.82;63.16;100861.28;5077655;27;45889;-80
2023/06/21 04:51:15;;;;;;;;;5.00;5.00;;;;;21.82;62.95;100844.44;5086804;27;45545;-83
2023/06/21 04:53:49;;;;;;;;;4.50;4.50;;;;;21.86;63.14;100851.13;5094953;27;45528;-80
2023/06/21 04:56:15;;;;;;;;;5.00;4.75;;;;;21.88;63.31;100854.41;5096079;27;46524;-82
2023/06/21 04:58:40;;;;;;;;;5.25;5.00;;;;;21.89;62.81;100856.09;5094178;27;45646;-79
2023/06/21 05:01:07;;;;;;;;;2.50;2.50;;;;;21.87;63.10;100866.91;5092347;27;45766;-84
2023/06/21 05:03:32;;;;;;;;;4.75;4.50;;;;;21.83;63.44;100856.78;5092720;27;46007;-82
2023/06/21 05:06:01;;;;;;;;;6.00;5.00;;;;;21.77;63.46;100851.16;5088870;27;45553;-83
2023/06/21 05:08:27;;;;;;;;;6.00;4.75;;;;;21.81;63.73;100869.47;5090342;27;46033;-81
2023/06/21 05:10:52;;;;;;;;;4.00;4.00;;;;;21.82;63.43;100871.13;5089500;27;45766;-83
2023/06/21 05:13:18;;;;;;;;;5.00;4.75;;;;;21.78;63.85;100873.31;5093895;27;45875;-82
2023/06/21 05:15:43;;;;;;;;;5.75;5.50;;;;;21.72;63.44;100871.34;5093938;27;45714;-83
2023/06/21 05:18:09;;;;;;;;;7.00;5.75;;;;;21.72;63.74;100885.53;5094033;27;45615;-84
2023/06/21 05:20:34;;;;;;;;;5.25;4.75;;;;;21.69;64.33;100877.88;5093674;27;46821;-80
2023/06/21 05:22:59;;;;;;;;;5.75;4.50;;;;;21.65;64.19;100887.22;5094699;27;46168;-82
2023/06/21 05:25:25;;;;;;;;;6.00;5.00;;;;;21.65;64.23;100894.38;5092735;27;45612;-76
2023/06/21 05:27:51;;;;;;;;;5.50;5.50;;;;;21.66;64.48;100891.53;5087431;27;46013;-77
2023/06/21 05:30:16;;;;;;;;;6.25;4.75;;;;;21.69;64.35;100887.72;5086799;27;47839;-80
2023/06/21 05:32:42;;;;;;;;;6.00;6.00;;;;;21.71;64.28;100902.53;5091378;27;47271;-80
2023/06/21 05:35:08;;;;;;;;;6.50;6.50;;;;;21.48;64.04;100853.66;5091496;27;46239;-81
2023/06/21 05:37:33;;;;;;;;;7.50;7.50;;;;;21.58;64.71;100864.09;5091646;27;46082;-79
2023/06/21 05:40:00;;;;;;;;;8.75;6.25;;;;;21.70;64.79;100894.72;5084651;27;45645;-78
2023/06/21 05:42:27;;;;;;;;;6.00;6.00;;;;;21.58;64.84;100861.44;5091800;27;46079;-80
2023/06/21 05:44:52;;;;;;;;;7.50;7.50;;;;;21.56;64.73;100866.09;5090634;27;45928;-79
2023/06/21 05:47:17;;;;;;;;;6.50;6.00;;;;;21.63;64.97;100878.56;5091563;27;45862;-80
2023/06/21 05:49:43;;;;;;;;;8.25;7.25;;;;;21.68;64.81;100875.38;5079224;27;46364;-81
2023/06/21 05:52:08;;;;;;;;;6.50;6.25;;;;;21.73;64.94;100886.34;5088328;27;48084;-80
2023/06/21 05:54:34;;;;;;;;;7.25;7.25;;;;;21.73;64.92;100883.69;5087484;27;45805;-81
2023/06/21 05:56:59;;;;;;;;;7.75;7.00;;;;;21.74;64.84;100886.19;5089898;27;45864;-79
2023/06/21 05:59:24;;;;;;;;;11.50;9.25;;;;;21.58;65.17;100864.09;5094911;27;45600;-81
2023/06/21 06:01:50;;;;;;;;;5.75;5.00;;;;;21.68;65.13;100875.38;5094806;27;46963;-81
2023/06/21 06:04:15;;;;;;;;;9.25;7.75;;;;;21.68;65.14;100873.53;5095517;27;45728;-79
2023/06/21 06:06:41;;;;;;;;;6.25;6.25;;;;;21.55;65.10;100854.59;5095041;27;45584;-79
2023/06/21 06:09:09;;;;;;;;;9.00;8.50;;;;;21.76;64.76;100889.50;5094752;27;46572;-79
2023/06/21 06:11:34;;;;;;;;;7.75;7.75;;;;;21.77;65.04;100893.81;5094687;27;45893;-80
2023/06/21 06:14:00;;;;;;;;;11.50;9.25;;;;;21.77;65.13;100885.81;5094446;27;45637;-78
2023/06/21 06:16:25;;;;;;;;;9.25;8.50;;;;;21.70;64.82;100871.50;5095007;27;45461;-80
2023/06/21 06:22:12;;;;;;;;;9.25;8.50;;;;;21.80;64.88;100882.00;5094276;27;45648;-75
2023/06/21 06:24:41;;;;;;;;;9.25;7.00;;;;;21.85;64.43;100886.78;5090829;27;45755;-77
2023/06/21 06:27:06;;;;;;;;;7.75;7.00;;;;;21.89;64.57;100888.94;5094843;27;45540;-78
2023/06/21 06:29:32;;;;;;;;;8.25;8.00;;;;;21.95;64.36;100898.09;5110305;27;45698;-78
2023/06/21 06:31:57;;;;;;;;;8.75;8.25;;;;;21.90;64.26;100882.59;5094389;27;45560;-77
2023/06/21 06:34:22;;;;;;;;;8.50;8.00;;;;;22.04;64.04;100894.38;5094051;27;45584;-76
2023/06/21 06:36:48;;;;;;;;;8.00;8.00;;;;;22.07;63.75;100902.88;5094114;27;45823;-76
2023/06/21 06:39:13;;;;;;;;;9.00;8.75;;;;;21.99;64.22;100880.72;5094276;27;45750;-74
2023/06/21 06:41:39;;;;;;;;;7.75;7.00;;;;;22.08;63.69;100887.66;5094017;27;46260;-78
2023/06/21 06:44:04;;;;;;;;;11.75;9.50;;;;;22.17;63.69;100897.31;5093541;27;45662;-77
2023/06/21 06:46:31;;;;;;;;;11.25;8.75;;;;;22.22;63.42;100902.09;5093662;27;45926;-77
2023/06/21 06:52:19;;;;;;;;;10.25;8.00;;;;;22.20;63.41;100899.59;5093680;27;45755;-76
2023/06/21 06:54:44;;;;;;;;;9.00;8.00;;;;;22.20;63.07;100904.94;5109546;27;45654;-76
2023/06/21 06:57:10;;;;;;;;;7.25;6.00;;;;;22.29;62.69;100914.59;5093562;27;45792;-75
2023/06/21 06:59:37;;;;;;;;;8.00;7.00;;;;;22.33;62.19;100913.22;5094040;27;46728;-77
2023/06/21 07:02:02;;;;;;;;;6.50;6.25;;;;;22.37;62.08;100921.69;5092385;27;46735;-77
2023/06/21 07:07:52;;;;;;;;;7.25;6.50;;;;;22.38;62.00;100916.19;5097381;27;45589;-77
2023/06/21 07:10:18;;;;;;;;;8.25;6.00;;;;;22.49;61.92;100922.94;5097356;27;46411;-77
2023/06/21 07:12:44;;;;;;;;;9.00;6.25;;;;;22.54;61.33;100923.22;5095845;27;46649;-76
2023/06/21 07:15:10;;;;;;;;;9.25;8.25;;;;;22.57;61.36;100923.69;5096886;27;45679;-77
2023/06/21 07:17:35;;;;;;;;;7.50;7.00;;;;;22.61;60.85;100924.19;5079433;27;45517;-78
2023/06/21 07:20:00;;;;;;;;;4.00;4.00;;;;;22.48;61.08;100900.75;5112423;27;46647;-77
2023/06/21 07:22:26;;;;;;;;;6.50;5.75;;;;;22.43;60.45;100880.91;5097447;27;45700;-77
2023/06/21 07:24:51;;;;;;;;;6.50;4.50;;;;;22.71;60.77;100922.13;5096283;27;45594;-78
2023/06/21 07:27:16;;;;;;;;;5.00;5.00;;;;;22.68;60.18;100914.41;5097559;27;45711;-78
2023/06/21 07:29:43;;;;;;;;;6.00;5.00;;;;;22.59;60.61;100903.00;5096987;27;46485;-78
2023/06/21 07:32:08;;;;;;;;;6.00;6.00;;;;;22.71;59.95;100921.25;5097097;27;46008;-77
2023/06/21 07:37:55;;;;;;;;;8.25;7.25;;;;;22.75;59.84;100931.44;5097093;27;45487;-78
2023/06/21 07:40:21;;;;;;;;;6.00;5.25;;;;;22.92;59.47;100950.84;5096846;27;45748;-76
2023/06/21 07:42:46;;;;;;;;;7.00;6.00;;;;;22.95;59.38;100937.09;5096400;27;45642;-76
2023/06/21 07:45:12;;;;;;;;;5.75;4.50;;;;;23.00;59.98;100932.88;5096471;27;45642;-76
2023/06/21 07:47:38;;;;;;;;;7.00;6.00;;;;;23.00;59.26;100916.81;5096660;27;45559;-77
2023/06/21 07:53:26;;;;;;;;;7.75;7.75;;;;;23.08;58.88;100912.44;5095715;27;45728;-78
2023/06/21 07:55:51;;;;;;;;;6.50;6.50;;;;;23.18;59.22;100935.19;5096298;27;45789;-77
2023/06/21 07:58:17;;;;;;;;;7.00;7.00;;;;;23.20;58.93;100927.00;5096556;27;45606;-77
2023/06/21 08:00:42;;;;;;;;;9.50;8.00;;;;;23.21;58.35;100932.16;5096029;27;47122;-76
2023/06/21 08:03:08;;;;;;;;;7.75;7.00;;;;;23.28;58.94;100942.94;5095932;27;45767;-75
2023/06/21 08:05:33;;;;;;;;;6.50;6.00;;;;;23.32;58.84;100936.25;5096278;27;45631;-78
2023/06/21 08:08:01;;;;;;;;;7.25;5.00;;;;;23.34;58.33;100937.72;5096949;27;45512;-77
2023/06/21 08:10:28;;;;;;;;;7.50;7.00;;;;;23.31;58.32;100939.94;5096674;27;46817;-79
2023/06/21 08:12:53;;;;;;;;;7.50;7.25;;;;;23.34;58.32;100939.56;5096556;27;46458;-77
2023/06/21 08:15:18;;;;;;;;;7.00;7.00;;;;;23.37;58.46;100939.19;5095194;27;45550;-77
2023/06/21 08:17:44;;;;;;;;;7.00;6.00;;;;;23.44;58.17;100943.59;5096737;27;45445;-77
2023/06/21 08:23:31;;;;;;;;;8.75;8.00;;;;;23.59;57.80;100948.19;5095615;27;45720;-75
2023/06/21 08:25:56;;;;;;;;;8.75;8.00;;;;;23.63;57.72;100958.31;5095647;27;45578;-76
2023/06/21 08:28:22;;;;;;;;;7.50;7.25;;;;;23.66;57.13;100954.44;5096323;27;45521;-75
2023/06/21 08:30:47;;;;;;;;;7.00;6.25;;;;;23.63;57.13;100946.78;5096162;27;46343;-74
2023/06/21 08:33:14;;;;;;;;;6.75;6.75;;;;;23.69;57.14;100948.72;5095977;27;46824;-75
2023/06/21 08:35:39;;;;;;;;;9.75;8.00;;;;;23.73;56.92;100945.47;5095587;27;45629;-74
2023/06/21 08:38:04;;;;;;;;;9.75;7.50;;;;;23.75;56.62;100954.13;5095867;27;45770;-76
2023/06/21 08:40:32;;;;;;;;;6.25;5.25;;;;;23.80;56.88;100961.63;5094268;27;49292;-76
2023/06/21 08:42:58;;;;;;;;;8.00;7.25;;;;;23.83;56.49;100959.41;5095691;27;47356;-77
2023/06/21 08:45:23;;;;;;;;;8.25;7.00;;;;;23.83;56.81;100946.03;5095479;27;45711;-77
2023/06/21 08:47:51;;;;;;;;;6.00;5.75;;;;;23.93;55.77;100958.28;5095510;27;46755;-78
2023/06/21 08:53:53;;;;;;;;;6.00;6.00;;;;;24.03;55.93;100959.63;5095346;27;45971;-77
2023/06/21 08:56:23;;;;;;;;;8.00;7.00;;;;;24.08;55.63;100964.41;5095403;27;45572;-77
2023/06/21 08:58:57;;;;;;;;;6.25;5.25;;;;;24.11;55.52;100959.53;5096042;27;45568;-76
2023/06/21 09:01:26;;;;;;;;;6.00;6.00;;;;;24.12;55.19;100955.03;5095751;27;46491;-76
2023/06/21 09:03:57;;;;;;;;;7.00;6.00;;;;;24.23;54.93;100970.63;5095613;27;46486;-77
2023/06/21 09:06:24;;;;;;;;;6.00;5.50;;;;;24.16;55.02;100943.72;5096490;27;45636;-76
2023/06/21 09:08:54;;;;;;;;;7.00;7.00;;;;;24.30;54.53;100968.00;5095675;27;45992;-77
2023/06/21 09:11:24;;;;;;;;;7.00;6.50;;;;;24.36;54.67;100965.41;5095573;27;46826;-77
2023/06/21 09:13:51;;;;;;;;;6.25;6.25;;;;;24.42;54.42;100961.13;5094087;27;48046;-77
2023/06/21 09:16:19;;;;;;;;;2.75;2.75;;;;;24.48;54.42;100957.69;5093843;27;45879;-79
2023/06/21 09:18:46;;;;;;;;;7.00;6.00;;;;;24.53;53.95;100964.13;5095637;27;45784;-76
2023/06/21 09:21:11;;;;;;;;;6.50;5.75;;;;;24.54;53.80;100963.13;5094856;27;46553;-79
2023/06/21 09:23:39;;;;;;;;;5.25;5.25;;;;;24.62;53.50;100959.47;5094908;27;46371;-78
2023/06/21 09:26:04;;;;;;;;;5.50;4.50;;;;;24.72;53.54;100959.16;5095332;27;45671;-76
2023/06/21 09:28:31;;;;;;;;;8.00;7.00;;;;;24.78;53.35;100956.53;5094491;27;45834;-77
2023/06/21 09:31:00;;;;;;;;;6.25;6.25;;;;;24.81;52.90;100958.84;5095229;27;45623;-77
2023/06/21 09:33:26;;;;;;;;;7.50;6.25;;;;;24.86;53.28;100956.41;5095171;27;45922;-79
2023/06/21 09:39:13;;;;;;;;;5.75;5.25;;;;;24.97;52.40;100961.28;5095127;27;45671;-78
2023/06/21 09:41:41;;;;;;;;;5.75;5.00;;;;;25.04;52.56;100964.84;5094618;27;46441;-76
2023/06/21 09:44:07;;;;;;;;;6.50;6.25;;;;;25.12;52.33;100971.06;5093955;27;47197;-76
2023/06/21 09:46:32;;;;;;;;;5.75;5.50;;;;;25.16;51.86;100973.16;5093951;27;45726;-77
2023/06/21 09:55:44;;;;;;;;;6.00;6.00;;;;;25.35;52.00;100967.13;5094438;27;45699;-78
2023/06/21 09:58:09;;;;;;;;;5.25;5.25;;;;;25.40;51.78;100967.34;5094890;27;45793;-78
2023/06/21 10:00:35;;;;;;;;;5.25;5.25;;;;;25.43;50.77;100966.94;5095077;27;45878;-77
2023/06/21 10:03:03;;;;;;;;;6.25;5.75;;;;;25.40;51.24;100962.00;5094728;27;47102;-78
2023/06/21 10:05:29;;;;;;;;;7.00;7.00;;;;;25.48;50.66;100963.66;5092495;27;46294;-77
2023/06/21 10:07:55;;;;;;;;;5.00;5.00;;;;;25.47;50.67;100967.41;5095063;27;45866;-78
2023/06/21 10:10:22;;;;;;;;;5.00;4.25;;;;;25.54;50.47;100964.75;5095114;27;45506;-77
2023/06/21 10:12:54;;;;;;;;;6.00;5.00;;;;;25.56;50.39;100963.56;5093510;27;46204;-78
2023/06/21 10:15:20;;;;;;;;;5.75;5.00;;;;;25.60;50.17;100962.13;5093894;27;46490;-78
2023/06/21 10:17:47;;;;;;;;;6.00;5.50;;;;;25.60;50.15;100955.94;5094922;27;45616;-78
2023/06/21 10:20:16;;;;;;;;;4.75;4.75;;;;;25.67;49.65;100963.00;5093529;27;45537;-78
2023/06/21 10:22:46;;;;;;;;;5.00;5.00;;;;;25.62;49.93;100956.56;5092863;27;46701;-78
2023/06/21 10:25:13;;;;;;;;;6.00;6.00;;;;;25.64;49.87;100963.38;5094047;27;47054;-78
2023/06/21 10:27:43;;;;;;;;;7.00;6.25;;;;;25.67;49.86;100964.84;5093855;27;45554;-77
2023/06/21 10:30:10;;;;;;;;;6.75;4.00;;;;;25.68;49.49;100963.84;5093191;27;45824;-78
2023/06/21 10:32:38;;;;;;;;;8.00;6.75;;;;;25.65;49.56;100954.31;5092951;27;45892;-77
2023/06/21 10:35:08;;;;;;;;;4.50;4.00;;;;;25.69;49.87;100962.81;5093932;27;46389;-78
2023/06/21 10:38:01;;;;;;;;;5.75;5.75;;;;;25.77;49.95;100965.31;5093958;27;45655;-79
2023/06/21 10:40:28;;;;;;;;;6.00;5.75;;;;;25.79;49.31;100969.47;5094412;27;45519;-79
2023/06/21 10:42:55;;;;;;;;;6.50;6.00;;;;;25.81;49.26;100963.88;5093096;27;46743;-80
2023/06/21 10:45:21;;;;;;;;;7.00;7.00;;;;;25.88;49.36;100964.75;5093648;27;46344;-79
2023/06/21 10:47:47;;;;;;;;;7.50;7.25;;;;;25.95;49.35;100957.56;5094510;27;45918;-80
2023/06/21 10:50:17;;;;;;;;;5.75;5.75;;;;;26.01;48.62;100959.44;5094142;27;45486;-79
2023/06/21 10:52:43;;;;;;;;;5.25;5.00;;;;;26.02;48.18;100954.91;5093928;27;46577;-79
2023/06/21 10:55:13;;;;;;;;;7.75;6.00;;;;;26.06;48.56;100954.28;5094102;27;46041;-78
2023/06/21 10:57:40;;;;;;;;;5.75;5.50;;;;;26.11;48.08;100964.44;5109741;27;45580;-78
2023/06/21 11:00:09;;;;;;;;;5.00;5.00;;;;;26.14;47.96;100967.53;5093664;27;45610;-77
2023/06/21 11:02:35;;;;;;;;;5.25;5.25;;;;;26.19;47.41;100973.13;5093675;27;46623;-78
2023/06/21 11:05:26;;;;;;;;;6.00;6.00;;;;;26.21;47.48;100957.66;5093601;27;46008;-77
2023/06/21 11:08:21;;;;;;;;;5.00;4.25;;;;;26.25;47.36;100958.09;5094354;27;45510;-78
2023/06/21 11:10:50;;;;;;;;;5.75;5.50;;;;;26.31;47.42;100958.09;5094702;27;45503;-78
2023/06/21 11:13:32;;;;;;;;;6.25;6.00;;;;;26.39;47.73;100946.34;5094129;27;46852;-77
2023/06/21 11:16:11;;;;;;;;;5.25;5.25;;;;;26.50;46.52;100951.13;5094385;27;45733;-78
2023/06/21 11:18:38;;;;;;;;;3.75;3.75;;;;;26.55;46.87;100947.81;5094773;27;45772;-78
2023/06/21 11:21:08;;;;;;;;;6.25;5.50;;;;;26.59;46.41;100952.59;5093435;27;46019;-79
2023/06/21 11:23:51;;;;;;;;;6.00;6.00;;;;;26.67;46.93;100946.16;5092061;27;47629;-78
2023/06/21 11:26:18;;;;;;;;;5.25;5.25;;;;;26.73;46.24;100948.84;5093740;27;47140;-77
2023/06/21 11:28:46;;;;;;;;;5.75;5.75;;;;;26.70;46.57;100938.53;5093259;27;45713;-76
2023/06/21 11:31:17;;;;;;;;;6.75;6.75;;;;;26.78;45.78;100950.94;5093615;27;45668;-77
2023/06/21 11:33:43;;;;;;;;;6.00;4.50;;;;;26.78;45.78;100955.47;5091364;27;47373;-77
2023/06/21 11:36:09;;;;;;;;;5.25;5.25;;;;;26.71;45.48;100950.94;5092497;27;45715;-78
2023/06/21 11:38:36;;;;;;;;;6.00;5.25;;;;;26.77;46.00;100964.59;5093330;27;45735;-79
2023/06/21 11:41:22;;;;;;;;;4.25;4.00;;;;;26.74;45.47;100957.75;5093242;27;45631;-76
2023/06/21 11:43:57;;;;;;;;;5.00;5.00;;;;;26.79;44.99;100966.03;5092647;27;47418;-77
2023/06/21 11:46:25;;;;;;;;;7.25;6.75;;;;;26.80;45.48;100966.88;5091519;27;48000;-77
2023/06/21 11:49:00;;;;;;;;;6.25;6.00;;;;;26.83;45.86;100955.72;5091938;27;45560;-77
2023/06/21 11:51:28;;;;;;;;;5.00;4.75;;;;;26.88;45.79;100958.63;5094830;27;45841;-78
2023/06/21 11:53:56;;;;;;;;;7.25;5.25;;;;;26.92;44.75;100955.31;5096318;27;46473;-76
2023/06/21 11:56:29;;;;;;;;;5.00;4.00;;;;;26.98;45.51;100951.81;5095347;27;47236;-76
2023/06/21 11:58:54;;;;;;;;;5.00;5.00;;;;;27.06;44.65;100948.88;5112641;27;45646;-76